Time;durP1;ratioP1;P1;durP2;ratioP2;P2;SDS_P1;SDS_P2;PMS_P1;PMS_P2;Temp;Humidity;BMP_temperature;BMP_pressure;BME280_temperature;BME280_humidity;BME280_pressure;Samples;Min_cycle;Max_cycle;Signal;HPM_P1;HPM_P2
2022/05/14 00:01:41;;;;;;;4.67;3.20;;;12.00;99.90;;;;;;4954173;28;20251;-76
2022/05/14 00:04:09;;;;;;;4.43;3.20;;;12.10;99.90;;;;;;4954736;28;20258;-75
2022/05/14 00:06:36;;;;;;;4.80;3.37;;;12.20;99.90;;;;;;4944976;28;20219;-73
2022/05/14 00:09:05;;;;;;;6.67;3.50;;;12.30;99.90;;;;;;4956504;28;20210;-74
2022/05/14 00:14:19;;;;;;;6.30;3.67;;;12.20;99.90;;;;;;4949367;28;20679;-74
2022/05/14 00:16:46;;;;;;;6.23;3.67;;;12.10;99.90;;;;;;4952443;28;20199;-74
2022/05/14 00:19:13;;;;;;;6.90;3.93;;;12.10;99.90;;;;;;4962991;28;20248;-76
2022/05/14 00:21:40;;;;;;;4.60;3.23;;;12.10;99.90;;;;;;4949629;28;20205;-74
2022/05/14 00:24:07;;;;;;;6.73;3.30;;;12.10;99.90;;;;;;4948195;28;20290;-78
2022/05/14 00:26:36;;;;;;;5.13;3.27;;;12.00;99.90;;;;;;4950631;28;20221;-74
2022/05/14 00:29:05;;;;;;;7.27;3.63;;;12.00;99.90;;;;;;4958590;28;20222;-73
2022/05/14 00:31:32;;;;;;;4.13;2.77;;;11.90;99.90;;;;;;4954851;28;20547;-72
2022/05/14 00:33:59;;;;;;;5.27;3.00;;;11.80;99.90;;;;;;4952728;28;20249;-74
2022/05/14 00:36:25;;;;;;;4.97;3.00;;;11.80;99.90;;;;;;4950602;28;20222;-75
2022/05/14 00:38:54;;;;;;;4.80;3.00;;;11.70;99.90;;;;;;4967183;28;20779;-75
2022/05/14 00:41:21;;;;;;;5.10;3.10;;;11.70;99.90;;;;;;4951675;28;20235;-77
2022/05/14 00:43:53;;;;;;;5.37;2.90;;;11.70;99.90;;;;;;4947256;28;20254;-78
2022/05/14 00:46:21;;;;;;;4.57;2.93;;;11.70;99.90;;;;;;4958685;28;20202;-78
2022/05/14 00:48:51;;;;;;;5.53;3.10;;;11.70;99.90;;;;;;4955860;28;20227;-75
2022/05/14 00:51:26;;;;;;;4.60;3.23;;;11.90;99.90;;;;;;4962714;28;20262;-74
2022/05/14 00:53:59;;;;;;;6.47;3.20;;;12.00;99.90;;;;;;4954576;28;20501;-74
2022/05/14 00:56:32;;;;;;;4.77;3.10;;;12.10;99.90;;;;;;4955769;28;20231;-77
2022/05/14 00:59:08;;;;;;;6.20;3.27;;;12.10;99.90;;;;;;4961913;28;20304;-76
2022/05/14 01:01:37;;;;;;;4.60;3.03;;;12.20;99.90;;;;;;4947523;28;20214;-72
2022/05/14 01:04:04;;;;;;;7.73;3.20;;;12.10;99.90;;;;;;4955586;28;20289;-74
2022/05/14 01:06:33;;;;;;;6.57;3.17;;;12.00;99.90;;;;;;4948425;28;20206;-74
2022/05/14 01:09:00;;;;;;;4.07;2.80;;;12.00;99.90;;;;;;4963869;28;20231;-74
2022/05/14 01:11:28;;;;;;;6.17;3.20;;;12.00;99.90;;;;;;4953102;28;20212;-75
2022/05/14 01:16:37;;;;;;;4.17;2.70;;;11.80;99.90;;;;;;5357597;23;21143;-75
2022/05/14 01:19:05;;;;;;;5.33;3.03;;;11.80;99.90;;;;;;4982328;28;20198;-76
2022/05/14 01:21:41;;;;;;;5.83;2.90;;;11.70;99.90;;;;;;4986500;28;20211;-77
2022/05/14 01:27:08;;;;;;;4.60;2.80;;;11.70;99.90;;;;;;4986652;28;21607;-77
2022/05/14 01:29:36;;;;;;;6.17;3.00;;;11.60;99.90;;;;;;4991567;28;20247;-78
2022/05/14 01:32:03;;;;;;;4.50;2.67;;;11.70;99.90;;;;;;4983980;28;20245;-78
2022/05/14 01:34:34;;;;;;;4.33;3.00;;;11.60;99.90;;;;;;4984463;28;20229;-77
2022/05/14 01:37:02;;;;;;;5.77;2.83;;;11.50;99.90;;;;;;4989721;28;20225;-77
2022/05/14 01:39:29;;;;;;;4.83;2.80;;;11.40;99.90;;;;;;4987496;28;20208;-76
2022/05/14 01:41:57;;;;;;;5.83;3.10;;;11.40;99.90;;;;;;4977073;28;20199;-76
2022/05/14 01:44:23;;;;;;;4.50;2.97;;;11.40;99.90;;;;;;4989665;28;20202;-78
2022/05/14 01:46:50;;;;;;;6.73;3.10;;;11.40;99.90;;;;;;4985302;28;20215;-78
2022/05/14 01:49:17;;;;;;;5.80;2.70;;;11.40;99.90;;;;;;4989728;28;20205;-78
2022/05/14 01:51:44;;;;;;;5.27;3.00;;;11.40;99.90;;;;;;4989985;28;20669;-77
2022/05/14 01:54:11;;;;;;;6.00;3.30;;;11.50;99.90;;;;;;4988285;28;20211;-77
2022/05/14 01:56:38;;;;;;;4.33;3.00;;;11.40;99.90;;;;;;4990028;28;20778;-77
2022/05/14 01:59:05;;;;;;;6.33;3.57;;;11.40;99.90;;;;;;4984137;28;20569;-79
2022/05/14 02:01:35;;;;;;;5.53;3.20;;;11.30;99.90;;;;;;4983211;28;20204;-77
2022/05/14 02:04:08;;;;;;;6.70;3.50;;;11.30;99.90;;;;;;4985843;28;20198;-79
2022/05/14 02:06:36;;;;;;;8.13;3.50;;;11.30;99.90;;;;;;4988795;28;20233;-77
2022/05/14 02:09:04;;;;;;;7.90;3.70;;;11.30;99.90;;;;;;4988643;28;20201;-78
2022/05/14 02:11:32;;;;;;;7.47;3.63;;;11.30;99.90;;;;;;4981236;28;20199;-78
2022/05/14 02:13:58;;;;;;;9.27;4.30;;;11.30;99.90;;;;;;4991491;28;20271;-78
2022/05/14 02:16:25;;;;;;;6.07;3.83;;;11.30;99.90;;;;;;4980665;28;20233;-80
2022/05/14 02:18:52;;;;;;;7.57;3.90;;;11.30;99.90;;;;;;4979431;28;20357;-79
2022/05/14 02:21:20;;;;;;;8.27;4.50;;;11.40;99.90;;;;;;4984720;28;20193;-79
2022/05/14 02:23:47;;;;;;;9.67;4.43;;;11.50;99.90;;;;;;4989761;28;20236;-78
2022/05/14 02:26:14;;;;;;;5.20;3.83;;;11.50;99.90;;;;;;4986564;28;20218;-77
2022/05/14 02:28:41;;;;;;;6.47;4.07;;;11.50;99.90;;;;;;4986761;28;20201;-79
2022/05/14 02:31:08;;;;;;;7.57;4.10;;;11.40;99.90;;;;;;4984751;28;20220;-80
2022/05/14 02:33:36;;;;;;;9.23;4.40;;;11.40;99.90;;;;;;4984740;28;20210;-80
2022/05/14 02:36:05;;;;;;;8.10;4.43;;;11.50;99.90;;;;;;4979520;28;20317;-81
2022/05/14 02:38:32;;;;;;;11.60;4.20;;;11.50;99.90;;;;;;4984055;28;20248;-81
2022/05/14 02:40:59;;;;;;;8.40;4.07;;;11.70;99.90;;;;;;4980181;28;20759;-80
2022/05/14 02:43:26;;;;;;;7.13;4.07;;;11.50;99.90;;;;;;4989134;28;20193;-80
2022/05/14 02:45:53;;;;;;;6.17;3.77;;;11.40;99.90;;;;;;4983557;28;20903;-83
2022/05/14 02:48:20;;;;;;;10.50;4.10;;;11.40;99.90;;;;;;4987978;28;20594;-82
2022/05/14 02:50:47;;;;;;;11.27;4.27;;;11.30;99.90;;;;;;4977620;28;20201;-83
2022/05/14 02:53:13;;;;;;;6.63;4.13;;;11.20;99.90;;;;;;4989506;28;20201;-83
2022/05/14 02:55:40;;;;;;;10.83;4.30;;;11.40;99.90;;;;;;4989255;28;20229;-83
2022/05/14 02:58:07;;;;;;;9.47;4.17;;;11.30;99.90;;;;;;4988913;28;20189;-86
2022/05/14 03:00:34;;;;;;;5.73;3.97;;;11.50;99.90;;;;;;4989067;28;20201;-83
2022/05/14 03:03:01;;;;;;;7.07;4.47;;;11.40;99.90;;;;;;4980140;28;20229;-86
2022/05/14 03:05:28;;;;;;;9.23;4.30;;;11.50;99.90;;;;;;4982097;28;20603;-85
2022/05/14 03:07:55;;;;;;;8.90;4.20;;;11.50;99.90;;;;;;4978490;28;20197;-84
2022/05/14 03:10:22;;;;;;;6.20;4.17;;;11.30;99.90;;;;;;4982727;28;20198;-85
2022/05/14 03:12:48;;;;;;;7.07;4.10;;;11.50;99.90;;;;;;4995209;28;20200;-86
2022/05/14 03:15:15;;;;;;;9.87;4.30;;;11.30;99.90;;;;;;4994615;28;20233;-83
2022/05/14 03:17:42;;;;;;;6.80;4.17;;;11.20;99.90;;;;;;4999483;28;20200;-86
2022/05/14 03:20:11;;;;;;;5.90;3.50;;;11.30;99.90;;;;;;4997785;28;20687;-86
2022/05/14 03:22:40;;;;;;;5.97;3.30;;;11.10;99.90;;;;;;4988896;28;20195;-84
2022/05/14 03:25:08;;;;;;;7.03;3.60;;;11.00;99.90;;;;;;4976915;28;20216;-82
2022/05/14 03:27:35;;;;;;;6.13;3.40;;;10.90;99.90;;;;;;4981281;28;20241;-83
2022/05/14 03:30:02;;;;;;;3.70;3.10;;;10.80;99.90;;;;;;4982366;28;20568;-82
2022/05/14 03:32:29;;;;;;;6.97;3.63;;;10.80;99.90;;;;;;4982540;28;20204;-84
2022/05/14 03:34:58;;;;;;;7.37;3.80;;;10.80;99.90;;;;;;4988552;28;20220;-82
2022/05/14 03:37:25;;;;;;;7.83;3.60;;;10.70;99.90;;;;;;4989865;28;20197;-83
2022/05/14 03:39:51;;;;;;;5.07;3.70;;;10.70;99.90;;;;;;4976556;28;20193;-82
2022/05/14 03:42:18;;;;;;;5.10;3.63;;;10.80;99.90;;;;;;4983721;28;20677;-80
2022/05/14 03:44:48;;;;;;;5.43;3.23;;;10.90;99.90;;;;;;4982838;28;20639;-82
2022/05/14 03:47:15;;;;;;;4.60;3.30;;;10.90;99.90;;;;;;4989600;28;20224;-80
2022/05/14 03:49:42;;;;;;;5.23;3.07;;;10.80;99.90;;;;;;4982598;28;20199;-79
2022/05/14 03:52:09;;;;;;;5.77;3.47;;;10.70;99.90;;;;;;4979590;28;20282;-79
2022/05/14 03:54:38;;;;;;;6.33;3.50;;;10.70;99.90;;;;;;4982463;28;20204;-78
2022/05/14 03:57:06;;;;;;;6.63;3.17;;;10.70;99.90;;;;;;4973356;28;20308;-80
2022/05/14 03:59:33;;;;;;;7.03;3.30;;;10.60;99.90;;;;;;4986018;28;20534;-80
2022/05/14 04:02:02;;;;;;;5.23;3.17;;;10.60;99.90;;;;;;4986876;28;20584;-79
2022/05/14 04:04:30;;;;;;;4.73;3.20;;;10.60;99.90;;;;;;4982553;28;20243;-78
2022/05/14 04:06:58;;;;;;;6.30;3.57;;;10.60;99.90;;;;;;4977803;28;20708;-79
2022/05/14 04:09:43;;;;;;;6.23;3.40;;;10.80;99.90;;;;;;4984272;28;20202;-80
2022/05/14 04:12:10;;;;;;;6.60;3.33;;;10.70;99.90;;;;;;4978624;28;20201;-77
2022/05/14 04:14:36;;;;;;;4.60;2.80;;;10.60;99.90;;;;;;4987215;28;20198;-79
2022/05/14 04:17:03;;;;;;;5.87;3.40;;;10.60;99.90;;;;;;4980033;28;20703;-78
2022/05/14 04:19:30;;;;;;;4.63;3.03;;;10.60;99.90;;;;;;4985453;28;20624;-78
2022/05/14 04:21:57;;;;;;;6.77;3.17;;;10.50;99.90;;;;;;4983956;28;20334;-80
2022/05/14 04:24:23;;;;;;;6.77;3.10;;;10.60;99.90;;;;;;4985739;28;20197;-79
2022/05/14 04:26:50;;;;;;;6.93;3.47;;;10.60;99.90;;;;;;4986657;28;20230;-79
2022/05/14 04:29:17;;;;;;;4.50;3.30;;;10.60;99.90;;;;;;4982474;28;20557;-79
2022/05/14 04:31:43;;;;;;;5.73;4.20;;;10.60;99.90;;;;;;4986963;28;20205;-81
2022/05/14 04:34:11;;;;;;;10.03;4.43;;;10.60;99.90;;;;;;4981857;28;20208;-80
2022/05/14 04:36:37;;;;;;;7.67;4.00;;;10.70;99.90;;;;;;4981664;28;20255;-81
2022/05/14 04:39:04;;;;;;;5.97;3.90;;;10.70;99.90;;;;;;4988545;28;20215;-82
2022/05/14 04:41:31;;;;;;;5.93;3.70;;;10.80;99.90;;;;;;4989264;28;20621;-83
2022/05/14 04:43:58;;;;;;;5.23;3.73;;;10.90;99.90;;;;;;4986616;28;20766;-82
2022/05/14 04:46:25;;;;;;;4.80;3.50;;;11.00;99.90;;;;;;4987680;28;20712;-84
2022/05/14 04:48:53;;;;;;;8.63;3.90;;;11.10;99.90;;;;;;4981140;28;20669;-83
2022/05/14 04:51:20;;;;;;;6.10;3.77;;;11.20;99.90;;;;;;4983996;28;20198;-83
2022/05/14 04:53:47;;;;;;;6.90;3.57;;;11.20;99.90;;;;;;4983746;28;20197;-84
2022/05/14 04:56:13;;;;;;;5.67;3.60;;;11.20;99.90;;;;;;4987755;28;20235;-84
2022/05/14 04:58:40;;;;;;;5.23;4.20;;;11.30;99.90;;;;;;4992478;28;20206;-84
2022/05/14 05:01:07;;;;;;;6.33;3.47;;;11.40;99.90;;;;;;4978581;28;20671;-86
2022/05/14 05:03:33;;;;;;;6.17;3.77;;;11.50;99.90;;;;;;4986946;28;20201;-84
2022/05/14 05:06:04;;;;;;;8.07;3.50;;;11.60;99.90;;;;;;4988145;28;20568;-83
2022/05/14 05:08:33;;;;;;;5.23;3.57;;;11.70;99.90;;;;;;4983116;28;20698;-86
2022/05/14 05:10:59;;;;;;;6.70;3.70;;;11.80;99.90;;;;;;4987919;28;20204;-84
2022/05/14 05:13:29;;;;;;;5.17;3.53;;;11.90;99.90;;;;;;4982189;28;20211;-82
2022/05/14 05:15:56;;;;;;;5.63;3.40;;;12.00;99.90;;;;;;4986011;28;20236;-80
2022/05/14 05:18:23;;;;;;;8.40;3.70;;;12.00;99.90;;;;;;4983542;28;21012;-79
2022/05/14 05:20:53;;;;;;;4.70;3.63;;;12.10;99.90;;;;;;4978327;28;20202;-79
2022/05/14 05:23:22;;;;;;;6.13;4.00;;;12.20;99.90;;;;;;4986646;28;20264;-78
2022/05/14 05:25:49;;;;;;;8.63;4.17;;;12.30;99.90;;;;;;4988100;28;20298;-79
2022/05/14 05:28:17;;;;;;;6.83;4.03;;;12.40;99.90;;;;;;4995630;28;20228;-77
2022/05/14 05:30:43;;;;;;;7.53;3.90;;;12.60;99.90;;;;;;4990567;28;20200;-77
2022/05/14 05:33:16;;;;;;;6.80;3.70;;;12.80;99.90;;;;;;4981689;28;20284;-76
2022/05/14 05:35:43;;;;;;;7.63;3.87;;;12.90;99.90;;;;;;4981091;28;20230;-77
2022/05/14 05:38:10;;;;;;;4.60;3.60;;;13.00;99.90;;;;;;4984068;28;20199;-77
2022/05/14 05:40:37;;;;;;;7.43;4.03;;;13.20;99.90;;;;;;4978635;28;20204;-76
2022/05/14 05:43:05;;;;;;;6.23;3.70;;;13.20;99.90;;;;;;4977100;28;20204;-76
2022/05/14 05:45:33;;;;;;;5.50;3.80;;;13.40;99.90;;;;;;4980332;28;20649;-76
2022/05/14 05:48:00;;;;;;;8.03;4.10;;;13.60;99.90;;;;;;4985045;28;20201;-75
2022/05/14 05:50:27;;;;;;;6.97;3.87;;;13.60;99.90;;;;;;4990463;28;20318;-75
2022/05/14 05:52:54;;;;;;;8.80;4.13;;;13.60;99.90;;;;;;4990888;28;20219;-77
2022/05/14 05:58:07;;;;;;;8.73;4.93;;;13.80;99.90;;;;;;4988693;28;20208;-75
2022/05/14 06:00:34;;;;;;;12.67;4.20;;;13.70;99.90;;;;;;4988992;28;20389;-73
2022/05/14 06:03:00;;;;;;;6.93;4.37;;;13.80;99.90;;;;;;4982848;28;20201;-74
2022/05/14 06:05:28;;;;;;;7.23;4.17;;;13.90;99.90;;;;;;4985433;28;20222;-75
2022/05/14 06:07:54;;;;;;;7.57;3.90;;;14.00;99.90;;;;;;4988463;28;20221;-76
2022/05/14 06:10:23;;;;;;;6.23;4.03;;;14.10;99.90;;;;;;4979149;28;20213;-76
2022/05/14 06:12:50;;;;;;;7.67;3.70;;;14.00;99.90;;;;;;4983062;28;20192;-76
2022/05/14 06:15:19;;;;;;;6.13;3.13;;;14.00;99.90;;;;;;4977436;28;20222;-77
2022/05/14 06:17:49;;;;;;;6.90;3.53;;;14.00;99.90;;;;;;4986897;28;20317;-76
2022/05/14 06:20:17;;;;;;;7.37;2.87;;;14.20;99.90;;;;;;4991064;28;20195;-75
2022/05/14 06:22:44;;;;;;;5.10;3.10;;;14.60;99.90;;;;;;4986775;28;20200;-75
2022/05/14 06:25:13;;;;;;;5.67;2.60;;;14.70;99.90;;;;;;4988958;28;20196;-76
2022/05/14 06:27:40;;;;;;;7.73;2.60;;;14.70;99.90;;;;;;4983938;28;20224;-77
2022/05/14 06:30:07;;;;;;;3.40;2.30;;;14.50;99.90;;;;;;4982516;28;20637;-76
2022/05/14 06:32:35;;;;;;;3.50;2.57;;;14.50;99.90;;;;;;4984831;28;20201;-76
2022/05/14 06:35:04;;;;;;;5.47;2.97;;;14.50;99.90;;;;;;4985120;28;20624;-76
2022/05/14 06:37:30;;;;;;;5.70;2.80;;;14.40;99.90;;;;;;4988633;28;20229;-73
2022/05/14 06:39:57;;;;;;;8.20;3.27;;;14.50;99.90;;;;;;4988774;28;20238;-75
2022/05/14 06:42:23;;;;;;;7.43;3.60;;;14.60;99.90;;;;;;4987778;28;20656;-77
2022/05/14 06:44:50;;;;;;;5.73;3.37;;;14.70;99.90;;;;;;4981159;28;20299;-76
2022/05/14 06:47:17;;;;;;;5.20;3.77;;;14.80;99.90;;;;;;4988463;28;20287;-74
2022/05/14 06:49:44;;;;;;;5.30;3.30;;;15.00;99.90;;;;;;4982226;28;20212;-77
2022/05/14 06:52:14;;;;;;;6.37;3.40;;;15.20;99.90;;;;;;4988873;28;20196;-74
2022/05/14 06:54:43;;;;;;;7.50;3.20;;;15.50;99.90;;;;;;4980880;28;20233;-75
2022/05/14 06:57:10;;;;;;;6.70;3.27;;;15.60;99.90;;;;;;4979376;28;20271;-76
2022/05/14 06:59:37;;;;;;;3.87;2.53;;;16.10;99.90;;;;;;4988718;28;20204;-75
2022/05/14 07:02:05;;;;;;;5.23;3.17;;;16.70;99.90;;;;;;4977660;28;20189;-74
2022/05/14 07:07:18;;;;;;;4.50;2.60;;;17.70;99.90;;;;;;4983472;28;20220;-73
2022/05/14 07:09:45;;;;;;;4.00;2.37;;;18.60;99.90;;;;;;4982979;28;20264;-74
2022/05/14 07:12:12;;;;;;;7.47;2.80;;;19.10;99.90;;;;;;4984042;28;20201;-75
2022/05/14 07:14:44;;;;;;;5.27;2.17;;;19.70;99.90;;;;;;4983338;28;20201;-73
2022/05/14 07:17:11;;;;;;;5.27;2.40;;;20.20;99.90;;;;;;4981998;28;20608;-74
2022/05/14 07:19:39;;;;;;;5.73;3.00;;;20.30;99.90;;;;;;4984635;28;20202;-75
2022/05/14 07:22:06;;;;;;;5.37;2.50;;;20.60;99.90;;;;;;4985093;28;20193;-74
2022/05/14 07:24:33;;;;;;;4.97;2.20;;;20.30;99.90;;;;;;4986041;28;20218;-75
2022/05/14 07:27:03;;;;;;;6.27;2.10;;;20.30;99.90;;;;;;4977051;28;20225;-74
2022/05/14 07:29:30;;;;;;;6.03;2.43;;;20.30;99.90;;;;;;4980984;28;20201;-71
2022/05/14 07:31:57;;;;;;;4.23;2.10;;;20.10;99.90;;;;;;4983369;28;20201;-71
2022/05/14 07:34:25;;;;;;;3.90;2.00;;;20.50;99.90;;;;;;4986221;28;20626;-71
2022/05/14 07:37:01;;;;;;;6.53;2.20;;;20.50;99.90;;;;;;4981403;28;20224;-69
2022/05/14 07:39:35;;;;;;;4.60;2.30;;;20.50;99.90;;;;;;4973451;28;20204;-70
2022/05/14 07:42:06;;;;;;;5.67;2.67;;;20.40;99.90;;;;;;4986890;28;20570;-74
2022/05/14 07:44:37;;;;;;;6.00;2.37;;;20.30;99.90;;;;;;4988414;28;20436;-71
2022/05/14 07:47:13;;;;;;;4.70;2.60;;;20.60;99.90;;;;;;4987202;28;20692;-72
2022/05/14 07:49:43;;;;;;;3.87;2.53;;;20.90;99.90;;;;;;4981267;28;20204;-70
2022/05/14 07:52:11;;;;;;;6.70;3.13;;;21.00;99.90;;;;;;4989757;28;20205;-71
2022/05/14 07:54:37;;;;;;;5.53;2.60;;;20.80;99.90;;;;;;4988988;28;20215;-71
2022/05/14 07:57:06;;;;;;;8.33;2.80;;;20.80;99.90;;;;;;4976303;28;20272;-71
2022/05/14 07:59:35;;;;;;;5.60;2.60;;;21.00;99.90;;;;;;4988189;28;20564;-71
2022/05/14 08:02:05;;;;;;;6.90;2.87;;;20.60;99.90;;;;;;4979188;28;20190;-71
2022/05/14 08:04:33;;;;;;;7.87;2.60;;;20.40;99.90;;;;;;4986221;28;20197;-73
2022/05/14 08:06:59;;;;;;;4.80;2.10;;;20.50;99.90;;;;;;4986866;28;20217;-71
2022/05/14 08:09:26;;;;;;;5.57;2.43;;;20.70;99.90;;;;;;4989132;28;20263;-72
2022/05/14 08:11:53;;;;;;;4.87;2.40;;;20.80;99.90;;;;;;4989771;28;20204;-72
2022/05/14 08:14:20;;;;;;;5.27;2.10;;;21.00;99.90;;;;;;4988810;28;20201;-74
2022/05/14 08:16:47;;;;;;;4.67;2.47;;;21.00;99.90;;;;;;4985420;28;20701;-71
2022/05/14 08:19:13;;;;;;;4.40;2.05;;;21.10;99.90;;;;;;4989204;28;20197;-71
2022/05/14 08:24:34;;;;;;;5.90;2.30;;;21.40;99.90;;;;;;4985649;28;20197;-72
2022/05/14 08:27:06;;;;;;;10.98;2.25;;;21.40;99.90;;;;;;4990695;28;20421;-71
2022/05/14 08:29:38;;;;;;;5.00;1.73;;;21.40;99.90;;;;;;4992645;28;20560;-71
2022/05/14 08:32:05;;;;;;;4.65;1.90;;;21.50;99.90;;;;;;4989611;28;20208;-75
2022/05/14 08:34:32;;;;;;;5.45;1.80;;;21.60;99.90;;;;;;4983435;28;20201;-71
2022/05/14 08:37:04;;;;;;;5.05;1.65;;;21.20;99.90;;;;;;4988210;28;20287;-71
2022/05/14 08:39:31;;;;;;;3.70;1.80;;;21.40;99.90;;;;;;4993705;28;20200;-71
2022/05/14 08:41:59;;;;;;;5.43;2.55;;;21.50;99.90;;;;;;4992879;28;20197;-71
2022/05/14 08:44:32;;;;;;;6.53;2.00;;;21.50;99.90;;;;;;4984901;28;20294;-70
2022/05/14 08:47:06;;;;;;;5.53;1.63;;;21.70;99.90;;;;;;4994251;28;20220;-71
2022/05/14 08:49:45;;;;;;;3.85;2.08;;;21.90;99.90;;;;;;4993821;28;20686;-71
2022/05/14 08:52:24;;;;;;;5.13;2.15;;;21.60;99.90;;;;;;4988366;28;20201;-69
2022/05/14 08:55:00;;;;;;;6.28;2.28;;;21.20;99.90;;;;;;4983402;28;20208;-71
2022/05/14 08:57:38;;;;;;;6.28;1.70;;;21.00;99.90;;;;;;4987989;28;20221;-71
2022/05/14 09:00:07;;;;;;;3.67;1.80;;;21.00;99.90;;;;;;4982935;28;20263;-72
2022/05/14 09:02:45;;;;;;;4.05;1.58;;;21.20;99.90;;;;;;4986590;28;20602;-72
2022/05/14 09:05:52;;;;;;;5.53;1.80;;;21.20;99.90;;;;;;4985435;28;20197;-71
2022/05/14 09:08:18;;;;;;;3.50;1.80;;;21.20;99.90;;;;;;4951197;28;20192;-74
2022/05/14 09:11:05;;;;;;;3.63;1.95;;;21.40;99.90;;;;;;4990869;28;20607;-72
2022/05/14 09:13:44;;;;;;;4.43;1.70;;;21.60;99.90;;;;;;4991825;28;20576;-72
2022/05/14 09:16:33;;;;;;;6.63;2.15;;;21.90;99.90;;;;;;4986813;28;20220;-71
2022/05/14 09:19:00;;;;;;;4.28;2.22;;;21.80;99.90;;;;;;4989837;28;20233;-71
2022/05/14 09:21:30;;;;;;;5.28;1.83;;;21.50;99.90;;;;;;4992263;28;20204;-72
2022/05/14 09:24:00;;;;;;;5.63;1.83;;;21.40;99.90;;;;;;4986155;28;20197;-72
2022/05/14 09:26:35;;;;;;;5.80;2.08;;;21.30;99.90;;;;;;4991137;28;20228;-71
2022/05/14 09:29:13;;;;;;;4.72;1.88;;;21.40;99.90;;;;;;4988215;28;20193;-72
2022/05/14 09:31:56;;;;;;;3.92;1.83;;;21.30;99.90;;;;;;4984916;28;20201;-70
2022/05/14 09:34:23;;;;;;;5.30;1.88;;;21.20;99.90;;;;;;4990398;28;20197;-74
2022/05/14 09:36:51;;;;;;;3.25;1.60;;;21.30;99.90;;;;;;4989188;28;20627;-71
2022/05/14 09:39:23;;;;;;;4.53;2.00;;;21.70;99.90;;;;;;4993219;28;20201;-72
2022/05/14 09:41:52;;;;;;;5.70;1.70;;;21.70;99.90;;;;;;4992955;28;20552;-71
2022/05/14 09:44:50;;;;;;;7.30;1.50;;;21.70;99.90;;;;;;4988200;28;20731;-73
2022/05/14 09:47:32;;;;;;;2.90;1.50;;;21.90;99.90;;;;;;4985814;28;20229;-75
2022/05/14 09:50:05;;;;;;;2.80;1.65;;;22.20;99.90;;;;;;4985748;28;20208;-74
2022/05/14 09:52:35;;;;;;;2.63;1.45;;;22.30;99.90;;;;;;4988586;28;20538;-72
2022/05/14 09:55:08;;;;;;;3.78;1.70;;;22.10;99.90;;;;;;4984977;28;20204;-72
2022/05/14 09:57:55;;;;;;;5.47;1.60;;;22.00;99.90;;;;;;4992668;28;20228;-75
2022/05/14 10:00:36;;;;;;;3.88;1.73;;;22.20;99.90;;;;;;4988645;28;20267;-70
2022/05/14 10:03:26;;;;;;;5.35;1.90;;;22.10;99.90;;;;;;4981484;28;20614;-74
2022/05/14 10:06:07;;;;;;;5.15;1.52;;;22.00;99.90;;;;;;4990274;28;20223;-72
2022/05/14 10:08:44;;;;;;;3.72;1.90;;;22.20;99.90;;;;;;4984998;28;20192;-72
2022/05/14 10:11:24;;;;;;;2.35;1.30;;;22.30;99.90;;;;;;4982161;28;20677;-71
2022/05/14 10:14:05;;;;;;;2.05;1.50;;;22.50;99.90;;;;;;4982363;28;20200;-72
2022/05/14 10:16:34;;;;;;;3.17;1.80;;;22.50;99.90;;;;;;4982486;28;20224;-72
2022/05/14 10:19:25;;;;;;;4.82;1.73;;;22.30;99.90;;;;;;4985796;28;20221;-72
2022/05/14 10:22:18;;;;;;;4.53;1.58;;;22.40;99.90;;;;;;4987200;28;20574;-72
2022/05/14 10:28:23;;;;;;;2.50;1.30;;;22.90;99.90;;;;;;4986300;28;20205;-71
2022/05/14 10:31:22;;;;;;;3.28;1.85;;;23.10;99.90;;;;;;4989942;28;20205;-74
2022/05/14 10:33:51;;;;;;;2.85;1.40;;;23.30;99.90;;;;;;4980483;28;20196;-73
2022/05/14 10:36:43;;;;;;;3.45;1.33;;;23.50;99.90;;;;;;4989461;28;20730;-72
2022/05/14 10:39:34;;;;;;;5.60;1.80;;;23.70;99.90;;;;;;4985358;28;20214;-72
2022/05/14 10:42:13;;;;;;;4.25;1.40;;;23.50;99.90;;;;;;4985524;28;20208;-73
2022/05/14 10:45:12;;;;;;;4.15;1.67;;;23.40;99.90;;;;;;4989024;28;20203;-71
2022/05/14 10:47:45;;;;;;;3.55;1.88;;;23.60;99.90;;;;;;4967626;28;20201;-76
2022/05/14 10:50:20;;;;;;;3.95;1.55;;;23.90;99.90;;;;;;4989027;28;20344;-73
2022/05/14 10:52:49;;;;;;;3.05;1.65;;;24.20;99.90;;;;;;4990268;28;20208;-72
2022/05/14 10:55:29;;;;;;;4.35;1.98;;;24.20;99.90;;;;;;4984252;28;20661;-72
2022/05/14 10:58:04;;;;;;;4.35;1.60;;;24.40;99.90;;;;;;4984106;28;20224;-70
2022/05/14 11:00:31;;;;;;;3.20;1.40;;;24.50;99.90;;;;;;4990331;28;20200;-72
2022/05/14 11:03:12;;;;;;;3.30;1.88;;;24.70;99.90;;;;;;4985107;28;20201;-70
2022/05/14 11:06:00;;;;;;;3.30;1.58;;;24.50;99.90;;;;;;4989732;28;20224;-72
2022/05/14 11:08:33;;;;;;;3.22;1.30;;;24.50;99.90;;;;;;4991676;28;20197;-71
2022/05/14 11:11:11;;;;;;;2.88;1.63;;;24.80;99.90;;;;;;4991271;28;20192;-72
2022/05/14 11:13:38;;;;;;;2.83;1.60;;;24.80;99.90;;;;;;4988939;28;20200;-73
2022/05/14 11:16:10;;;;;;;4.13;1.60;;;24.60;99.90;;;;;;4988683;28;20223;-72
2022/05/14 11:18:51;;;;;;;3.47;1.45;;;24.80;99.90;;;;;;4984040;28;20584;-72
2022/05/14 11:21:31;;;;;;;5.65;2.13;;;24.90;99.90;;;;;;4989213;28;20279;-73
2022/05/14 11:24:00;;;;;;;7.95;2.40;;;24.80;99.90;;;;;;4980721;28;20298;-72
2022/05/14 11:26:28;;;;;;;3.28;2.03;;;24.80;99.90;;;;;;4987722;28;20669;-75
2022/05/14 11:29:00;;;;;;;4.22;2.08;;;24.90;99.90;;;;;;4982249;28;20205;-74
2022/05/14 11:31:32;;;;;;;4.35;1.60;;;24.90;99.90;;;;;;4987260;28;20668;-73
2022/05/14 11:34:13;;;;;;;7.53;2.28;;;24.90;99.90;;;;;;4990168;28;20201;-75
2022/05/14 11:36:49;;;;;;;2.92;1.55;;;24.90;99.90;;;;;;4990807;28;20217;-73
2022/05/14 11:39:30;;;;;;;4.43;1.60;;;24.90;99.90;;;;;;4987623;28;20225;-74
2022/05/14 11:42:24;;;;;;;4.70;1.38;;;25.10;99.90;;;;;;4980526;28;20621;-72
2022/05/14 11:45:00;;;;;;;3.80;1.38;;;25.20;99.90;;;;;;4983773;28;20197;-74
2022/05/14 11:47:41;;;;;;;4.90;1.50;;;25.30;99.90;;;;;;4987739;28;20248;-75
2022/05/14 11:50:08;;;;;;;3.67;1.60;;;25.30;99.90;;;;;;4987645;28;20193;-73
2022/05/14 11:52:46;;;;;;;4.57;1.30;;;25.30;99.90;;;;;;4989342;28;20690;-73
2022/05/14 11:55:19;;;;;;;1.85;1.40;;;25.30;99.90;;;;;;4985110;28;20189;-72
2022/05/14 11:58:07;;;;;;;3.88;1.45;;;25.40;99.90;;;;;;4983830;28;20220;-74
2022/05/14 12:00:35;;;;;;;3.95;1.50;;;25.60;99.90;;;;;;4986649;28;20197;-74
2022/05/14 12:03:19;;;;;;;4.47;1.90;;;25.70;99.90;;;;;;4985165;28;20560;-75
2022/05/14 12:06:04;;;;;;;4.43;1.70;;;25.40;99.90;;;;;;4985757;28;20746;-72
2022/05/14 12:09:08;;;;;;;4.05;1.40;;;25.50;99.90;;;;;;4988904;28;20208;-73
2022/05/14 12:12:01;;;;;;;6.75;1.70;;;25.30;99.90;;;;;;4981448;28;20196;-72
2022/05/14 12:14:35;;;;;;;4.43;1.52;;;25.50;99.90;;;;;;4978506;28;20678;-74
2022/05/14 12:17:06;;;;;;;4.03;1.98;;;25.80;99.90;;;;;;4983355;28;20278;-71
2022/05/14 12:19:39;;;;;;;3.90;1.50;;;25.70;99.90;;;;;;4989579;28;20220;-73
2022/05/14 12:22:16;;;;;;;2.67;1.60;;;25.30;99.90;;;;;;4981193;28;20193;-75
2022/05/14 12:24:53;;;;;;;5.70;1.67;;;25.30;99.90;;;;;;4982203;28;20192;-72
2022/05/14 12:27:20;;;;;;;4.68;1.58;;;25.30;99.90;;;;;;4988263;28;20270;-72
2022/05/14 12:30:06;;;;;;;4.35;1.35;;;25.50;99.90;;;;;;4990171;28;21238;-72
2022/05/14 12:35:34;;;;;;;2.22;1.30;;;25.50;99.90;;;;;;4990351;28;20712;-72
2022/05/14 12:38:05;;;;;;;3.10;1.30;;;25.60;99.90;;;;;;4988617;28;20594;-74
2022/05/14 12:40:36;;;;;;;2.28;1.40;;;25.50;99.90;;;;;;4986459;28;20200;-72
2022/05/14 12:43:07;;;;;;;3.40;1.48;;;25.50;99.90;;;;;;4985439;28;20193;-73
2022/05/14 12:45:43;;;;;;;4.35;1.50;;;25.50;99.90;;;;;;4980401;28;20216;-76
2022/05/14 12:48:12;;;;;;;4.07;1.70;;;25.60;99.90;;;;;;4984471;28;20400;-72
2022/05/14 12:50:51;;;;;;;4.68;1.40;;;25.80;99.90;;;;;;4985781;28;20617;-73
2022/05/14 12:53:18;;;;;;;4.43;1.60;;;26.10;99.90;;;;;;4984715;28;20204;-72
2022/05/14 12:55:49;;;;;;;3.00;1.38;;;26.10;99.40;;;;;;4985993;28;20236;-76
2022/05/14 12:58:18;;;;;;;3.42;1.40;;;26.10;99.90;;;;;;4985420;28;20209;-73
2022/05/14 13:00:47;;;;;;;2.80;1.40;;;26.10;99.90;;;;;;4990129;28;20692;-72
2022/05/14 13:03:28;;;;;;;5.40;1.33;;;26.20;99.90;;;;;;4986928;28;20201;-72
2022/05/14 13:05:57;;;;;;;3.75;1.35;;;26.50;99.90;;;;;;4978014;28;20244;-76
2022/05/14 13:08:26;;;;;;;2.13;1.40;;;26.30;99.90;;;;;;4974302;28;20587;-73
2022/05/14 13:10:56;;;;;;;4.47;1.40;;;26.50;99.90;;;;;;4987916;28;20205;-72
2022/05/14 13:13:38;;;;;;;5.22;1.42;;;26.60;99.00;;;;;;4989067;28;20212;-72
2022/05/14 13:16:13;;;;;;;5.63;1.60;;;26.70;98.60;;;;;;4986559;28;20216;-74
2022/05/14 13:18:44;;;;;;;3.97;1.30;;;26.50;98.90;;;;;;4990931;28;20251;-77
2022/05/14 13:21:26;;;;;;;5.07;1.52;;;26.60;99.10;;;;;;4990960;28;20197;-72
2022/05/14 13:23:59;;;;;;;4.72;1.50;;;26.80;99.40;;;;;;4981618;28;20198;-71
2022/05/14 13:26:31;;;;;;;1.73;1.20;;;27.00;98.80;;;;;;4990211;28;20245;-72
2022/05/14 13:29:24;;;;;;;3.17;1.40;;;26.70;98.40;;;;;;4981047;28;20205;-75